METAR Data
IDs: Format: Raw Decoded Include TAF

Data at: 0738 UTC 23 Oct 2018

METAR for:KMIE (Muncie/Johnson Fld, IN, US)
Text:KMIE 230653Z AUTO 24008KT 10SM CLR 10/06 A3009 RMK AO2 SLP186 T01000056
Temperature: 10.0°C ( 50°F)
Dewpoint: 5.6°C ( 42°F) [RH = 74%]
Pressure (altimeter):30.09 inches Hg (1019.0 mb) [Sea level pressure: 1018.6 mb]
Winds:from the WSW (240 degrees) at 9 MPH (8 knots; 4.1 m/s)
Visibility:10 or more sm (16+ km)
Ceiling:at least 12,000 feet AGL
Clouds:sky clear below 12,000 feet AGL
QC Flag:automated observation with no human augmentation